Time;durP1;ratioP1;P1;durP2;ratioP2;P2;SDS_P1;SDS_P2;PMS_P1;PMS_P2;Temp;Humidity;BMP_temperature;BMP_pressure;BME280_temperature;BME280_humidity;BME280_pressure;Samples;Min_cycle;Max_cycle;Signal;HPM_P1;HPM_P2
2022/11/30 00:00:31;;;;;;;88.78;51.25;;;;;;;7.02;100.00;102125.84;5107283;28;20500;-60
2022/11/30 00:02:57;;;;;;;87.38;51.25;;;;;;;7.01;100.00;102119.69;5094971;28;20073;-59
2022/11/30 00:05:22;;;;;;;89.80;49.95;;;;;;;7.05;100.00;102131.91;5088765;28;20025;-59
2022/11/30 00:07:49;;;;;;;90.55;50.38;;;;;;;7.07;100.00;102131.00;5072117;28;20024;-59
2022/11/30 00:10:15;;;;;;;96.18;50.40;;;;;;;7.10;100.00;102136.22;5093945;28;20032;-59
2022/11/30 00:12:41;;;;;;;93.15;50.20;;;;;;;7.05;100.00;102131.91;5072686;28;20036;-59
2022/11/30 00:15:12;;;;;;;94.03;51.92;;;;;;;6.99;100.00;102129.44;5079732;28;20024;-59
2022/11/30 00:17:44;;;;;;;93.45;52.33;;;;;;;7.03;100.00;102127.59;5097290;28;20024;-59
2022/11/30 00:20:11;;;;;;;95.82;53.85;;;;;;;6.98;100.00;102124.19;5081812;28;20020;-59
2022/11/30 00:22:38;;;;;;;93.35;53.80;;;;;;;7.03;100.00;102131.09;5094606;28;20417;-59
2022/11/30 00:25:04;;;;;;;93.57;52.63;;;;;;;7.01;100.00;102134.69;5091261;28;20035;-59
2022/11/30 00:27:31;;;;;;;90.80;51.90;;;;;;;6.99;100.00;102134.72;5092746;28;20020;-58
2022/11/30 00:29:57;;;;;;;91.78;53.92;;;;;;;7.03;100.00;102132.88;5104376;28;20150;-59
2022/11/30 00:32:22;;;;;;;98.32;53.10;;;;;;;7.02;100.00;102136.41;5097007;28;20058;-59
2022/11/30 00:34:51;;;;;;;101.55;54.15;;;;;;;6.99;100.00;102137.38;5091400;28;20043;-59
2022/11/30 00:37:16;;;;;;;99.63;54.70;;;;;;;6.97;100.00;102125.97;5091503;28;20039;-59
2022/11/30 00:39:42;;;;;;;97.22;53.60;;;;;;;7.00;100.00;102133.84;5094756;28;20028;-59
2022/11/30 00:42:07;;;;;;;83.78;50.53;;;;;;;7.00;100.00;102130.28;5091454;28;20122;-59
2022/11/30 00:44:33;;;;;;;89.35;51.58;;;;;;;7.00;100.00;102131.19;5094117;28;20027;-59
2022/11/30 00:46:58;;;;;;;86.75;50.35;;;;;;;6.97;100.00;102141.84;5097606;28;20040;-59
2022/11/30 00:49:26;;;;;;;93.85;52.17;;;;;;;7.03;100.00;102141.69;5095199;28;20618;-59
2022/11/30 00:51:51;;;;;;;84.60;52.03;;;;;;;7.00;100.00;102141.75;5110063;28;20032;-59
2022/11/30 00:54:17;;;;;;;91.03;52.33;;;;;;;7.00;100.00;102140.88;5090042;28;20092;-59
2022/11/30 00:56:42;;;;;;;92.18;54.25;;;;;;;7.00;100.00;102146.16;5125192;27;20027;-59
2022/11/30 00:59:08;;;;;;;94.35;52.58;;;;;;;7.03;100.00;102143.47;5108495;28;20096;-59
2022/11/30 01:01:34;;;;;;;95.97;52.13;;;;;;;7.01;100.00;102146.13;5109572;28;20027;-59
2022/11/30 01:04:03;;;;;;;93.20;53.30;;;;;;;6.98;100.00;102138.28;5102544;28;20081;-59
2022/11/30 01:06:28;;;;;;;89.60;51.97;;;;;;;7.01;100.00;102140.84;5112427;28;20061;-59
2022/11/30 01:08:54;;;;;;;88.70;51.65;;;;;;;7.02;100.00;102147.00;5111659;28;20123;-59
2022/11/30 01:11:25;;;;;;;82.95;49.90;;;;;;;7.02;100.00;102158.44;5112311;28;20031;-59
2022/11/30 01:13:52;;;;;;;88.75;51.33;;;;;;;7.04;100.00;102153.13;5103666;28;20031;-59
2022/11/30 01:16:20;;;;;;;83.72;49.33;;;;;;;7.00;100.00;102152.34;5090674;28;20074;-59
2022/11/30 01:18:47;;;;;;;85.55;49.72;;;;;;;6.99;100.00;102147.94;5091415;28;20080;-59
2022/11/30 01:21:15;;;;;;;83.20;48.97;;;;;;;6.94;100.00;102139.28;5090978;28;20031;-60
2022/11/30 01:23:41;;;;;;;89.20;49.85;;;;;;;7.03;100.00;102144.31;5099120;28;20059;-59
2022/11/30 01:26:07;;;;;;;78.03;48.38;;;;;;;7.00;100.00;102147.06;5098883;28;20024;-59
2022/11/30 01:28:36;;;;;;;83.63;47.30;;;;;;;6.99;100.00;102149.72;5091492;28;20556;-60
2022/11/30 01:31:04;;;;;;;81.18;47.83;;;;;;;7.02;100.00;102153.16;5091821;28;20157;-59
2022/11/30 01:33:30;;;;;;;79.97;46.67;;;;;;;7.00;100.00;102143.50;5092458;28;20028;-59
2022/11/30 01:36:08;;;;;;;81.63;46.78;;;;;;;7.04;100.00;102151.34;5091750;28;20479;-59
2022/11/30 01:38:36;;;;;;;80.63;46.35;;;;;;;7.04;100.00;102153.13;5099086;28;20036;-60
2022/11/30 01:41:03;;;;;;;85.30;47.55;;;;;;;7.05;100.00;102149.56;5091594;28;20086;-59
2022/11/30 01:43:52;;;;;;;76.60;45.38;;;;;;;7.05;100.00;102146.91;5090432;28;20446;-59
2022/11/30 01:46:42;;;;;;;79.28;44.28;;;;;;;7.09;100.00;102143.28;5069970;28;20071;-59
2022/11/30 01:49:08;;;;;;;75.82;45.95;;;;;;;7.10;100.00;102150.31;5086203;28;20491;-59
2022/11/30 01:51:53;;;;;;;71.93;42.75;;;;;;;7.13;100.00;102150.22;5094018;28;20051;-59
2022/11/30 01:54:23;;;;;;;75.53;44.22;;;;;;;7.07;100.00;102153.03;5092857;28;20451;-59
2022/11/30 01:56:55;;;;;;;69.50;42.67;;;;;;;7.01;100.00;102159.38;5091998;28;20032;-59
2022/11/30 01:59:23;;;;;;;70.07;41.97;;;;;;;7.01;100.00;102166.44;5095752;28;20372;-59
2022/11/30 02:01:49;;;;;;;67.50;42.22;;;;;;;7.01;100.00;102167.28;5091818;28;20038;-59
2022/11/30 02:04:23;;;;;;;64.72;40.72;;;;;;;7.06;100.00;102164.53;5093234;28;20032;-58
2022/11/30 02:06:49;;;;;;;68.82;42.85;;;;;;;7.07;100.00;102171.56;5097459;28;21511;-59
2022/11/30 02:09:18;;;;;;;67.05;41.38;;;;;;;7.02;100.00;102173.44;5096029;28;20073;-59
2022/11/30 02:11:43;;;;;;;67.68;39.92;;;;;;;7.03;100.00;102170.78;5095906;28;20024;-59
2022/11/30 02:14:14;;;;;;;64.38;40.88;;;;;;;7.02;100.00;102168.16;5093669;28;20036;-59
2022/11/30 02:16:45;;;;;;;64.75;39.83;;;;;;;7.05;100.00;102168.06;5094959;28;20056;-59
2022/11/30 02:19:32;;;;;;;65.57;41.63;;;;;;;7.09;100.00;102168.84;5096263;28;20055;-59
2022/11/30 02:22:29;;;;;;;62.13;38.47;;;;;;;7.08;100.00;102168.00;5087817;28;20841;-58
2022/11/30 02:25:09;;;;;;;55.33;38.03;;;;;;;7.07;100.00;102165.41;5096691;28;20019;-59
2022/11/30 02:27:47;;;;;;;61.35;39.00;;;;;;;7.03;100.00;102161.97;5098352;28;20028;-59
2022/11/30 02:30:17;;;;;;;69.32;39.42;;;;;;;6.99;100.00;102169.09;5096826;28;20495;-59
2022/11/30 02:32:58;;;;;;;55.28;36.95;;;;;;;7.08;100.00;102169.78;5097119;28;20197;-59
2022/11/30 02:35:31;;;;;;;55.13;36.33;;;;;;;7.00;100.00;102170.88;5093621;28;20051;-59
2022/11/30 02:38:04;;;;;;;56.55;36.80;;;;;;;7.02;100.00;102170.81;5094460;28;20375;-59
2022/11/30 02:40:30;;;;;;;62.20;36.72;;;;;;;7.03;100.00;102167.28;5093664;28;20036;-59
2022/11/30 02:42:58;;;;;;;55.45;35.10;;;;;;;7.03;100.00;102172.56;5110470;28;20408;-59
2022/11/30 02:45:47;;;;;;;59.08;36.05;;;;;;;7.08;100.00;102175.06;5098576;28;20028;-59
2022/11/30 02:48:16;;;;;;;59.83;37.17;;;;;;;7.02;100.00;102174.31;5094579;28;20594;-59
2022/11/30 02:50:47;;;;;;;54.15;36.80;;;;;;;7.03;100.00;102173.41;5094766;28;20031;-59
2022/11/30 02:53:13;;;;;;;55.00;35.47;;;;;;;7.01;100.00;102175.22;5112939;28;20177;-59
2022/11/30 02:55:39;;;;;;;56.25;36.55;;;;;;;7.04;100.00;102183.09;5114818;28;20028;-59
2022/11/30 02:58:07;;;;;;;53.40;35.30;;;;;;;7.02;100.00;102181.38;5101757;28;20501;-59
2022/11/30 03:00:33;;;;;;;47.97;34.92;;;;;;;7.05;100.00;102183.94;5094017;28;20471;-59
2022/11/30 03:02:58;;;;;;;47.22;33.17;;;;;;;7.03;100.00;102180.50;5095857;28;20043;-59
2022/11/30 03:05:23;;;;;;;46.33;34.22;;;;;;;7.04;100.00;102180.44;5096116;28;20034;-59
2022/11/30 03:07:49;;;;;;;45.25;32.70;;;;;;;7.04;100.00;102180.44;5092649;28;20044;-59
2022/11/30 03:10:14;;;;;;;47.25;32.97;;;;;;;7.07;100.00;102178.63;5092720;28;20026;-59
2022/11/30 03:12:40;;;;;;;47.78;33.22;;;;;;;7.08;100.00;102185.66;5093021;28;20059;-59
2022/11/30 03:15:07;;;;;;;47.67;34.17;;;;;;;7.11;100.00;102174.97;5089072;28;20029;-59
2022/11/30 03:17:33;;;;;;;46.25;33.40;;;;;;;7.04;100.00;102169.84;5110069;28;20028;-59
2022/11/30 03:19:58;;;;;;;46.95;32.92;;;;;;;7.08;100.00;102185.66;5091353;28;20039;-59
2022/11/30 03:22:24;;;;;;;47.05;31.50;;;;;;;7.02;100.00;102174.31;5094961;28;20119;-59
2022/11/30 03:24:49;;;;;;;44.33;31.42;;;;;;;7.08;100.00;102177.72;5081042;28;20120;-59
2022/11/30 03:27:15;;;;;;;45.55;31.48;;;;;;;7.02;100.00;102176.94;5085475;28;20097;-59
2022/11/30 03:29:43;;;;;;;44.83;30.25;;;;;;;7.10;100.00;102179.41;5074613;28;20089;-59
2022/11/30 03:32:10;;;;;;;43.50;31.65;;;;;;;7.07;100.00;102178.63;5087028;28;20052;-59
2022/11/30 03:34:35;;;;;;;43.50;31.35;;;;;;;7.11;100.00;102180.28;5083002;28;20548;-59
2022/11/30 03:37:03;;;;;;;42.33;31.23;;;;;;;7.12;100.00;102182.00;5081567;28;20099;-59
2022/11/30 03:39:28;;;;;;;46.15;30.38;;;;;;;7.04;100.00;102180.44;5072697;28;20036;-59
2022/11/30 03:41:54;;;;;;;42.67;29.77;;;;;;;7.07;100.00;102176.84;5089840;28;20438;-59
2022/11/30 03:44:19;;;;;;;39.88;28.45;;;;;;;7.07;100.00;102175.97;5073269;28;20038;-59
2022/11/30 03:46:45;;;;;;;37.60;27.73;;;;;;;7.01;100.00;102169.06;5091979;27;20040;-59
2022/11/30 03:49:10;;;;;;;40.33;29.17;;;;;;;6.97;100.00;102176.22;5087215;28;20025;-59
2022/11/30 03:51:36;;;;;;;36.58;27.85;;;;;;;6.99;100.00;102181.47;5088993;27;20477;-59
2022/11/30 03:54:01;;;;;;;40.75;28.20;;;;;;;6.90;100.00;102177.28;5071005;28;20038;-59
2022/11/30 03:56:26;;;;;;;35.47;28.83;;;;;;;6.95;100.00;102178.03;5095584;28;20130;-59
2022/11/30 03:58:52;;;;;;;37.05;28.92;;;;;;;6.99;100.00;102186.75;5077279;28;20035;-59
2022/11/30 04:01:23;;;;;;;39.63;28.60;;;;;;;6.91;100.00;102184.34;5087819;28;20070;-59
2022/11/30 04:03:53;;;;;;;42.40;29.85;;;;;;;6.91;100.00;102194.00;5114269;27;20028;-59
2022/11/30 04:06:19;;;;;;;36.40;28.17;;;;;;;6.97;100.00;102185.91;5087549;28;20024;-59
2022/11/30 04:08:45;;;;;;;37.30;27.25;;;;;;;6.91;100.00;102181.69;5096539;28;20032;-59
2022/11/30 04:11:11;;;;;;;37.58;28.13;;;;;;;6.95;100.00;102183.34;5085013;28;20372;-59
2022/11/30 04:13:40;;;;;;;34.92;28.08;;;;;;;6.89;100.00;102180.84;5097371;28;20246;-60
2022/11/30 04:16:07;;;;;;;39.08;28.58;;;;;;;6.92;100.00;102183.41;5076963;28;20024;-59
2022/11/30 04:18:34;;;;;;;39.72;28.50;;;;;;;6.92;100.00;102177.25;5092254;28;20026;-59
2022/11/30 04:21:01;;;;;;;37.05;28.02;;;;;;;6.97;100.00;102189.47;5077397;28;20028;-59
2022/11/30 04:23:32;;;;;;;34.30;26.65;;;;;;;6.90;100.00;102187.88;5112701;28;20031;-59
2022/11/30 04:25:58;;;;;;;34.85;27.27;;;;;;;6.92;100.00;102188.69;5072381;28;20028;-59
2022/11/30 04:28:24;;;;;;;36.33;26.83;;;;;;;6.92;100.00;102188.69;5072890;28;20025;-59
2022/11/30 04:30:51;;;;;;;38.58;28.95;;;;;;;6.94;100.00;102186.91;5074202;28;20028;-59
2022/11/30 04:33:17;;;;;;;37.60;29.05;;;;;;;6.94;100.00;102193.94;5110623;28;20035;-59
2022/11/30 04:35:55;;;;;;;34.95;26.65;;;;;;;6.98;100.00;102193.84;5090896;28;20039;-59
2022/11/30 04:38:21;;;;;;;37.00;27.73;;;;;;;6.96;100.00;102190.34;5077454;28;20044;-60
2022/11/30 04:40:46;;;;;;;34.03;27.73;;;;;;;6.92;100.00;102191.34;5092938;28;20117;-59
2022/11/30 04:43:12;;;;;;;38.58;27.58;;;;;;;6.94;100.00;102189.53;5093090;28;20066;-59
2022/11/30 04:45:38;;;;;;;38.08;28.65;;;;;;;6.95;100.00;102193.03;5076205;28;20028;-60
2022/11/30 04:48:07;;;;;;;35.97;28.45;;;;;;;6.91;100.00;102186.09;5072086;28;20032;-59
2022/11/30 04:50:33;;;;;;;38.75;29.38;;;;;;;6.95;100.00;102200.97;5076197;28;20431;-59
2022/11/30 04:53:01;;;;;;;38.75;29.08;;;;;;;6.94;100.00;102201.88;5091353;28;20147;-59
2022/11/30 04:55:27;;;;;;;38.70;28.80;;;;;;;6.91;100.00;102196.66;5095234;28;20106;-59
2022/11/30 04:57:53;;;;;;;37.85;28.02;;;;;;;6.93;100.00;102200.16;5091715;28;20028;-59
2022/11/30 05:00:21;;;;;;;39.05;30.25;;;;;;;6.88;100.00;102199.38;5080082;28;20123;-59
2022/11/30 05:02:46;;;;;;;37.33;28.90;;;;;;;6.86;100.00;102198.59;5081794;28;20439;-59
2022/11/30 05:05:12;;;;;;;37.67;28.77;;;;;;;6.88;100.00;102205.53;5094371;28;20120;-59
2022/11/30 05:07:39;;;;;;;35.97;27.80;;;;;;;6.85;100.00;102196.81;5090834;28;20036;-59
2022/11/30 05:10:05;;;;;;;33.85;26.10;;;;;;;6.84;100.00;102195.97;5090616;28;20463;-59
2022/11/30 05:12:33;;;;;;;32.33;26.35;;;;;;;6.87;100.00;102192.38;5092070;28;20109;-59
2022/11/30 05:14:58;;;;;;;35.85;28.00;;;;;;;6.86;100.00;102198.59;5080192;28;20024;-59
2022/11/30 05:17:24;;;;;;;36.25;27.40;;;;;;;6.82;100.00;102201.31;5094917;28;20127;-59
2022/11/30 05:19:49;;;;;;;37.22;26.90;;;;;;;6.79;100.00;102201.38;5096273;28;20034;-59
2022/11/30 05:22:18;;;;;;;33.90;26.83;;;;;;;6.77;100.00;102203.19;5093171;28;20039;-59
2022/11/30 05:24:44;;;;;;;30.80;25.38;;;;;;;6.74;100.00;102199.75;5108757;28;21446;-59
2022/11/30 05:27:09;;;;;;;29.48;25.30;;;;;;;6.72;100.00;102204.22;5095080;28;20032;-59
2022/11/30 05:29:37;;;;;;;30.88;25.02;;;;;;;6.68;100.00;102203.44;5090739;28;20504;-59
2022/11/30 05:32:02;;;;;;;32.63;26.20;;;;;;;6.71;100.00;102207.78;5091590;28;20404;-59
2022/11/30 05:34:28;;;;;;;34.90;27.58;;;;;;;6.66;100.00;102197.28;5078211;28;20043;-59
2022/11/30 05:36:54;;;;;;;32.78;27.13;;;;;;;6.67;100.00;102206.94;5100421;28;20036;-59
2022/11/30 05:39:19;;;;;;;34.13;26.08;;;;;;;6.63;100.00;102209.72;5108235;28;20528;-59
2022/11/30 05:41:44;;;;;;;31.02;25.58;;;;;;;6.58;100.00;102200.13;5094888;28;20040;-59
2022/11/30 05:44:10;;;;;;;32.80;25.50;;;;;;;6.56;100.00;102211.66;5091564;28;20035;-59
2022/11/30 05:46:36;;;;;;;34.88;27.05;;;;;;;6.60;100.00;102222.09;5070323;28;20032;-59
2022/11/30 05:49:03;;;;;;;32.15;26.08;;;;;;;6.55;100.00;102213.41;5074063;28;20368;-59
2022/11/30 05:51:34;;;;;;;32.92;26.50;;;;;;;6.59;100.00;102220.38;5100866;28;20500;-59
2022/11/30 05:53:59;;;;;;;35.33;26.05;;;;;;;6.62;100.00;102229.13;5089323;28;20047;-59
2022/11/30 05:56:25;;;;;;;33.60;26.08;;;;;;;6.63;100.00;102233.53;5094804;28;20036;-59
2022/11/30 05:58:50;;;;;;;34.35;26.38;;;;;;;6.55;100.00;102228.41;5091126;28;20032;-59
2022/11/30 06:01:23;;;;;;;39.40;27.70;;;;;;;6.55;100.00;102234.56;5092423;28;20054;-59
2022/11/30 06:03:51;;;;;;;35.03;28.45;;;;;;;6.60;100.00;102231.81;5090262;28;20286;-59
2022/11/30 06:06:18;;;;;;;36.28;27.70;;;;;;;6.51;100.00;102217.03;5091346;28;20028;-58
2022/11/30 06:08:45;;;;;;;36.20;29.02;;;;;;;6.62;100.00;102240.59;5090065;28;20117;-59
2022/11/30 06:11:11;;;;;;;36.40;27.83;;;;;;;6.55;100.00;102242.50;5092715;28;20104;-59
2022/11/30 06:13:39;;;;;;;36.55;27.80;;;;;;;6.61;100.00;102236.19;5109473;28;20059;-59
2022/11/30 06:16:05;;;;;;;35.20;27.52;;;;;;;6.63;100.00;102231.75;5110874;28;20031;-59
2022/11/30 06:18:30;;;;;;;34.20;27.02;;;;;;;6.65;100.00;102239.63;5111606;28;20039;-59
2022/11/30 06:21:14;;;;;;;34.22;27.17;;;;;;;6.68;100.00;102232.50;5110464;28;20099;-59
2022/11/30 06:23:40;;;;;;;35.70;28.10;;;;;;;6.64;100.00;102232.59;5090994;28;20046;-59
2022/11/30 06:26:11;;;;;;;34.38;27.30;;;;;;;6.59;100.00;102236.25;5110983;28;20531;-59
2022/11/30 06:28:38;;;;;;;33.03;26.90;;;;;;;6.63;100.00;102238.81;5111885;28;20114;-59
2022/11/30 06:31:06;;;;;;;34.47;26.15;;;;;;;6.59;100.00;102238.88;5102782;28;20048;-59
2022/11/30 06:33:35;;;;;;;35.47;26.05;;;;;;;6.59;100.00;102238.88;5100327;28;20169;-59
2022/11/30 06:36:01;;;;;;;32.88;26.48;;;;;;;6.62;100.00;102245.88;5110399;28;20501;-59
2022/11/30 06:38:27;;;;;;;33.28;24.92;;;;;;;6.60;100.00;102243.25;5110539;28;20023;-59
2022/11/30 06:41:03;;;;;;;34.30;27.23;;;;;;;6.61;100.00;102246.75;5111182;28;20036;-59
2022/11/30 06:43:35;;;;;;;32.05;26.15;;;;;;;6.56;100.00;102236.31;5095039;28;20085;-59
2022/11/30 06:46:02;;;;;;;34.25;26.27;;;;;;;6.57;100.00;102245.97;5090893;28;20024;-59
2022/11/30 06:48:30;;;;;;;35.17;26.35;;;;;;;6.52;100.00;102249.63;5092652;28;20951;-59
2022/11/30 06:50:59;;;;;;;37.58;26.77;;;;;;;6.58;100.00;102245.06;5093332;28;20471;-59
2022/11/30 06:53:25;;;;;;;35.45;27.02;;;;;;;6.53;100.00;102246.06;5087100;28;20028;-59
2022/11/30 06:55:50;;;;;;;32.70;26.88;;;;;;;6.55;100.00;102239.84;5114814;27;20034;-59
2022/11/30 06:58:16;;;;;;;36.15;27.67;;;;;;;6.60;100.00;102252.97;5114392;28;20032;-59
2022/11/30 07:00:41;;;;;;;35.88;27.35;;;;;;;6.57;100.00;102263.63;5113543;28;20028;-59
2022/11/30 07:03:10;;;;;;;35.63;28.45;;;;;;;6.58;100.00;102263.56;5098960;28;20046;-59
2022/11/30 07:05:44;;;;;;;38.83;27.58;;;;;;;6.56;100.00;102260.09;5096098;28;20039;-59
2022/11/30 07:08:10;;;;;;;35.13;27.02;;;;;;;6.59;100.00;102260.03;5092901;28;20097;-60
2022/11/30 07:10:45;;;;;;;32.97;25.95;;;;;;;6.62;100.00;102260.84;5097722;28;20028;-59
2022/11/30 07:13:16;;;;;;;31.65;26.38;;;;;;;6.64;100.00;102261.69;5095212;28;20458;-59
2022/11/30 07:15:43;;;;;;;35.55;28.02;;;;;;;6.57;100.00;102253.91;5103526;28;20038;-59
2022/11/30 07:18:12;;;;;;;34.97;27.70;;;;;;;6.59;100.00;102261.81;5098237;28;20031;-59
2022/11/30 07:20:38;;;;;;;34.60;26.92;;;;;;;6.58;100.00;102258.28;5120545;27;20024;-59
2022/11/30 07:26:05;;;;;;;35.90;27.25;;;;;;;6.57;100.00;102279.47;5093665;28;20062;-60
2022/11/30 07:28:30;;;;;;;34.90;27.17;;;;;;;6.60;100.00;102289.97;5087179;28;20475;-60
2022/11/30 07:30:56;;;;;;;34.45;27.92;;;;;;;6.54;100.00;102275.13;5074005;28;20049;-60
2022/11/30 07:33:21;;;;;;;31.60;27.38;;;;;;;6.58;100.00;102290.00;5073487;28;20032;-60
2022/11/30 07:35:46;;;;;;;35.22;28.15;;;;;;;6.56;100.00;102293.59;5120084;27;20035;-60
2022/11/30 07:38:12;;;;;;;36.72;27.25;;;;;;;6.53;100.00;102291.91;5094589;28;20445;-60
2022/11/30 07:40:38;;;;;;;35.38;27.65;;;;;;;6.55;100.00;102295.34;5091731;28;20051;-60
2022/11/30 07:43:04;;;;;;;36.72;27.75;;;;;;;6.59;100.00;102291.75;5093678;28;20042;-60
2022/11/30 07:45:29;;;;;;;35.67;27.65;;;;;;;6.62;100.00;102297.84;5125983;27;20093;-60
2022/11/30 07:47:57;;;;;;;36.95;29.85;;;;;;;6.55;100.00;102287.41;5096582;28;20028;-60
2022/11/30 07:50:23;;;;;;;34.67;28.48;;;;;;;6.56;100.00;102299.75;5100513;28;20031;-60
2022/11/30 07:52:48;;;;;;;34.25;27.80;;;;;;;6.64;100.00;102310.13;5087672;28;20096;-60
2022/11/30 07:55:14;;;;;;;36.95;29.55;;;;;;;6.67;100.00;102311.84;5091314;28;20040;-60
2022/11/30 07:57:40;;;;;;;39.67;30.27;;;;;;;6.68;100.00;102311.81;5091118;28;20078;-60
2022/11/30 08:00:06;;;;;;;39.28;30.23;;;;;;;6.71;100.00;102311.75;5093474;28;20110;-60
2022/11/30 08:02:31;;;;;;;38.97;30.65;;;;;;;6.70;100.00;102301.19;5094327;28;20103;-60
2022/11/30 08:04:57;;;;;;;38.35;30.55;;;;;;;6.76;100.00;102309.84;5092158;28;20107;-60
2022/11/30 08:07:23;;;;;;;36.20;29.30;;;;;;;6.78;100.00;102308.03;5082652;28;20028;-60
2022/11/30 08:09:50;;;;;;;41.17;30.23;;;;;;;6.79;100.00;102316.84;5089793;28;20039;-60
2022/11/30 08:12:15;;;;;;;38.58;30.58;;;;;;;6.83;100.00;102311.44;5092553;28;20023;-60
2022/11/30 08:14:41;;;;;;;36.97;29.42;;;;;;;6.79;100.00;102316.84;5094475;28;20047;-60
2022/11/30 08:17:08;;;;;;;41.10;30.88;;;;;;;6.85;100.00;102319.34;5100441;28;20035;-60
2022/11/30 08:19:36;;;;;;;45.20;30.55;;;;;;;6.82;100.00;102329.97;5091230;28;20441;-60
2022/11/30 08:22:04;;;;;;;43.00;31.27;;;;;;;6.85;100.00;102326.41;5091360;28;20068;-60
2022/11/30 08:24:30;;;;;;;42.63;30.95;;;;;;;6.91;100.00;102326.25;5111494;27;20036;-60
2022/11/30 08:26:55;;;;;;;39.10;30.17;;;;;;;6.90;100.00;102335.97;5095371;28;20032;-60
2022/11/30 08:29:20;;;;;;;37.75;30.08;;;;;;;6.92;100.00;102338.59;5090776;28;20177;-60
2022/11/30 08:31:46;;;;;;;41.60;31.38;;;;;;;6.88;100.00;102334.25;5093675;28;20127;-60
2022/11/30 08:34:12;;;;;;;43.10;30.33;;;;;;;6.93;100.00;102333.25;5103163;28;20396;-60
2022/11/30 08:36:39;;;;;;;41.30;29.45;;;;;;;6.93;100.00;102329.75;5094380;28;20068;-59
2022/11/30 08:39:06;;;;;;;39.78;30.15;;;;;;;6.94;100.00;102329.72;5090206;28;20043;-60
2022/11/30 08:41:33;;;;;;;39.50;31.90;;;;;;;6.99;100.00;102334.88;5088540;28;20032;-60
2022/11/30 08:44:00;;;;;;;46.88;31.08;;;;;;;6.98;100.00;102338.44;5091276;28;20387;-60
2022/11/30 08:46:26;;;;;;;39.67;30.45;;;;;;;6.96;100.00;102342.88;5091644;28;20028;-60
2022/11/30 08:48:52;;;;;;;43.92;32.25;;;;;;;6.95;100.00;102341.16;5089689;28;20509;-60
2022/11/30 08:51:19;;;;;;;43.00;32.20;;;;;;;7.03;100.00;102357.72;5090858;28;20115;-60
2022/11/30 08:53:47;;;;;;;36.78;29.95;;;;;;;7.05;100.00;102350.59;5076928;28;20040;-60
2022/11/30 08:56:15;;;;;;;40.58;32.05;;;;;;;6.97;100.00;102349.91;5087145;28;20118;-60
2022/11/30 08:58:42;;;;;;;36.33;29.95;;;;;;;6.95;100.00;102352.59;5099886;28;20027;-60
2022/11/30 09:01:12;;;;;;;37.63;29.58;;;;;;;7.00;100.00;102350.72;5094477;28;20081;-60
2022/11/30 09:03:38;;;;;;;40.30;31.88;;;;;;;6.99;100.00;102343.69;5082079;28;20032;-60
2022/11/30 09:06:16;;;;;;;39.03;30.38;;;;;;;7.13;100.00;102348.66;5091716;28;20024;-60
2022/11/30 09:08:44;;;;;;;38.05;30.98;;;;;;;7.11;100.00;102342.50;5091243;28;20036;-60
2022/11/30 09:11:19;;;;;;;42.05;31.33;;;;;;;7.17;100.00;102352.94;5089512;28;20020;-60
2022/11/30 09:13:46;;;;;;;38.92;30.77;;;;;;;7.20;100.00;102355.50;5095146;28;20482;-60
2022/11/30 09:16:14;;;;;;;38.17;29.50;;;;;;;7.26;100.00;102360.69;5090267;28;20106;-60
2022/11/30 09:18:40;;;;;;;36.22;28.80;;;;;;;7.31;100.00;102362.34;5089238;28;20456;-60
2022/11/30 09:21:09;;;;;;;35.67;29.10;;;;;;;7.28;100.00;102364.13;5113311;27;20029;-60
2022/11/30 09:23:35;;;;;;;37.13;29.52;;;;;;;7.22;100.00;102356.34;5110438;27;20111;-60
2022/11/30 09:26:03;;;;;;;36.03;29.50;;;;;;;7.28;100.00;102363.28;5103286;28;20028;-60
2022/11/30 09:28:31;;;;;;;37.55;30.65;;;;;;;7.28;100.00;102358.84;5092631;28;20098;-60
2022/11/30 09:31:05;;;;;;;37.55;29.23;;;;;;;7.39;100.00;102365.66;5091069;28;20040;-60
2022/11/30 09:33:32;;;;;;;39.35;29.55;;;;;;;7.46;100.00;102373.38;5090958;28;20394;-60
2022/11/30 09:35:59;;;;;;;34.83;28.95;;;;;;;7.54;100.00;102367.03;5123266;27;20085;-60
2022/11/30 09:38:25;;;;;;;38.30;30.35;;;;;;;7.57;100.00;102372.25;5090503;28;20044;-60
2022/11/30 09:40:56;;;;;;;39.65;30.60;;;;;;;7.53;100.00;102368.81;5081426;28;20028;-60
2022/11/30 09:43:24;;;;;;;37.47;29.60;;;;;;;7.49;100.00;102370.66;5085423;28;20415;-60
2022/11/30 09:45:56;;;;;;;38.08;29.98;;;;;;;7.48;100.00;102376.88;5090989;28;20024;-60
2022/11/30 09:48:40;;;;;;;36.80;29.42;;;;;;;7.50;100.00;102369.78;5088924;28;20716;-60
2022/11/30 09:51:17;;;;;;;37.28;28.90;;;;;;;7.49;100.00;102362.72;5085677;28;20047;-60
2022/11/30 09:53:52;;;;;;;37.47;30.30;;;;;;;7.48;100.00;102354.84;5088884;28;20024;-60
2022/11/30 09:56:33;;;;;;;36.58;29.52;;;;;;;7.58;100.00;102373.97;5099257;28;20427;-60
2022/11/30 09:59:11;;;;;;;35.00;29.17;;;;;;;7.70;100.00;102371.88;5093837;28;20085;-60
2022/11/30 10:01:36;;;;;;;34.35;29.17;;;;;;;7.96;100.00;102375.59;5095767;28;20483;-60
2022/11/30 10:04:02;;;;;;;34.75;29.92;;;;;;;8.24;100.00;102377.50;5088218;28;20028;-60
2022/11/30 10:06:49;;;;;;;34.47;28.55;;;;;;;8.37;99.74;102374.44;5083006;28;20106;-60
2022/11/30 10:09:26;;;;;;;35.63;29.17;;;;;;;8.38;98.38;102376.22;5074522;28;20030;-60
2022/11/30 10:11:57;;;;;;;34.45;29.13;;;;;;;8.31;98.02;102373.75;5091999;28;20039;-60
2022/11/30 10:14:51;;;;;;;33.95;28.10;;;;;;;8.43;98.33;102364.59;5092664;28;20100;-60
2022/11/30 10:17:45;;;;;;;35.83;29.02;;;;;;;8.64;97.67;102369.25;5101936;28;20474;-60
2022/11/30 10:20:47;;;;;;;33.20;27.70;;;;;;;8.99;96.94;102368.16;5100361;28;20077;-60
2022/11/30 10:23:34;;;;;;;31.40;27.80;;;;;;;9.27;94.26;102364.63;5094091;28;20056;-60
2022/11/30 10:26:10;;;;;;;32.25;27.35;;;;;;;9.52;92.17;102367.31;5075274;28;20093;-60
2022/11/30 10:28:45;;;;;;;31.23;26.55;;;;;;;9.87;90.86;102358.09;5085682;28;20672;-60
2022/11/30 10:31:13;;;;;;;30.58;25.75;;;;;;;10.02;88.42;102362.84;5112561;28;20127;-60
2022/11/30 10:33:51;;;;;;;30.63;26.23;;;;;;;10.26;88.20;102362.00;5114192;28;20015;-61
2022/11/30 10:36:35;;;;;;;26.98;23.98;;;;;;;10.62;86.46;102365.13;5088700;28;20020;-60
2022/11/30 10:39:11;;;;;;;28.75;23.35;;;;;;;11.10;84.60;102354.28;5074110;28;20024;-60
2022/11/30 10:41:46;;;;;;;25.10;21.50;;;;;;;11.28;82.42;102327.81;5094308;28;20036;-60
2022/11/30 10:44:21;;;;;;;28.90;22.08;;;;;;;11.74;81.96;102348.03;5094579;28;20023;-61
2022/11/30 10:46:56;;;;;;;27.98;21.80;;;;;;;11.90;80.06;102342.03;5094063;28;20031;-60
2022/11/30 10:49:28;;;;;;;28.10;21.35;;;;;;;12.11;79.38;102350.88;5094661;27;20035;-61
2022/11/30 10:52:01;;;;;;;25.48;20.70;;;;;;;12.44;78.14;102346.69;5089103;28;20437;-61
2022/11/30 10:54:29;;;;;;;29.40;21.13;;;;;;;12.57;75.98;102346.09;5095025;28;20028;-60
2022/11/30 10:57:00;;;;;;;26.42;20.10;;;;;;;12.61;74.68;102355.66;5094396;28;20050;-61
2022/11/30 10:59:37;;;;;;;26.38;20.77;;;;;;;12.43;76.65;102349.41;5094094;28;20038;-60
2022/11/30 11:02:38;;;;;;;23.35;20.85;;;;;;;12.18;78.69;102352.34;5090525;28;20059;-60
2022/11/30 11:05:15;;;;;;;24.63;20.58;;;;;;;11.68;79.80;102344.78;5112334;28;20027;-61
2022/11/30 11:08:01;;;;;;;28.10;23.05;;;;;;;11.45;81.38;102337.78;5113271;28;20470;-60
2022/11/30 11:10:35;;;;;;;27.85;22.27;;;;;;;11.11;80.43;102347.16;5111600;28;20031;-60
2022/11/30 11:13:01;;;;;;;27.45;23.27;;;;;;;10.97;80.87;102337.09;5114310;28;20140;-61
2022/11/30 11:15:32;;;;;;;27.52;23.05;;;;;;;10.74;81.86;102335.34;5114740;28;20106;-60
2022/11/30 11:18:24;;;;;;;26.20;23.35;;;;;;;10.66;83.31;102340.09;5109243;28;20591;-60
2022/11/30 11:21:20;;;;;;;28.35;22.67;;;;;;;10.45;84.20;102336.50;5087614;28;20020;-60